Flight Track Log - Related Links

Times and Time Zones

All times are in EDT time to prevent confusion due to time zone crossing. See the AAL1624 flight status page for this flight to view local times or setup timezone preferences in your user account.

Time Position Orientation Groundspeed Altitude Reporting Facility
EDT Latitude Longitude Course Direction KTS MPH feet Rate Location/Type
Thu 23:21:49 42.0000 -87.9120 304° West 173 199 900  Level FlightAware ADS-B
Thu 23:22:04 42.0060 -87.9260 300° West 160 184 1,900 3,200 Climbing FlightAware ADS-B
Thu 23:22:19 42.0060 -87.9410 270° West 174 200 2,500 1,950 Climbing FlightAware ADS-B
Thu 23:22:44 42.0060 -87.9710 270° West 218 251 3,200 2,100 Climbing FlightAware ADS-B
Thu 23:22:59 42.0060 -87.9940 270° West 241 277 3,900 2,250 Climbing FlightAware ADS-B
Thu 23:23:24 42.0050 -88.0310 268° West 250 288 4,700 1,527 Climbing FlightAware ADS-B
Thu 23:23:54 42.0040 -88.0760 268° West 247 284 5,300 2,400 Climbing FlightAware ADS-B
Thu 23:24:24 42.0010 -88.1230 265° West 251 289 7,100 3,720 Climbing FlightAware ADS-B
Thu 23:24:44 41.9990 -88.1540 265° West 255 293 8,400 4,062 Climbing FlightAware ADS-B
Thu 23:25:29 41.9920 -88.2270 263° West 255 293 11,500 3,800 Climbing FlightAware ADS-B
Thu 23:26:14 41.9840 -88.3020 262° West 270 311 14,100 3,176 Climbing FlightAware ADS-B
Thu 23:26:54 41.9780 -88.3690 263° West 288 331 16,000 2,541 Climbing FlightAware ADS-B
Thu 23:27:39 41.9570 -88.4490 251° West 322 371 17,700 2,188 Climbing FlightAware ADS-B
Thu 23:28:19 41.9350 -88.5280 249° West 347 399 19,100 2,329 Climbing FlightAware ADS-B
Thu 23:29:04 41.9090 -88.6220 250° West 362 417 21,000 2,541 Climbing FlightAware ADS-B
Thu 23:29:44 41.8840 -88.7080 249° West 372 428 22,700 2,325 Climbing FlightAware ADS-B
Thu 23:30:24 41.8620 -88.7890 250° West 379 436 24,100 2,118 Climbing FlightAware ADS-B
Thu 23:31:09 41.8330 -88.8920 249° West 388 447 25,700 1,341 Climbing FlightAware ADS-B
Thu 23:31:49 41.8070 -88.9840 249° West 412 474 26,000 212 Climbing FlightAware ADS-B
Thu 23:32:34 41.7740 -89.0970 249° West 426 490 26,000  Level FlightAware ADS-B
Thu 23:33:14 41.7490 -89.1860 249° West 426 490 26,000  Level FlightAware ADS-B
Thu 23:33:54 41.7180 -89.2940 249° West 426 490 26,000  Level FlightAware ADS-B
Thu 23:34:39 41.6890 -89.3960 249° West 425 489 26,000  Level FlightAware ADS-B
Thu 23:35:19 41.6590 -89.4990 249° West 425 489 26,000  Level FlightAware ADS-B
Thu 23:35:59 41.6300 -89.5980 249° West 425 489 26,000  Level FlightAware ADS-B
Thu 23:36:44 41.5990 -89.7050 249° West 428 493 26,000  Level FlightAware ADS-B
Thu 23:37:29 41.5660 -89.8180 249° West 429 494 26,000  Level FlightAware ADS-B
Thu 23:38:09 41.5390 -89.9100 249° West 429 494 26,000  Level FlightAware ADS-B
Thu 23:38:49 41.5070 -90.0170 248° West 429 494 26,000  Level FlightAware ADS-B
Thu 23:39:34 41.4630 -90.1230 241° Southwest 435 501 26,000  Level FlightAware ADS-B
Thu 23:40:14 41.4230 -90.2090 238° Southwest 434 499 26,000  Level FlightAware ADS-B
Thu 23:40:59 41.3740 -90.3150 238° Southwest 433 498 26,000  Level FlightAware ADS-B
Thu 23:41:39 41.3330 -90.4050 239° Southwest 431 496 26,000  Level FlightAware ADS-B
Thu 23:42:24 41.2860 -90.5050 238° Southwest 430 495 26,000  Level FlightAware ADS-B
Thu 23:43:04 41.2440 -90.5970 239° Southwest 430 495 26,000  Level FlightAware ADS-B
Thu 23:43:59 41.1860 -90.7190 238° Southwest 432 497 26,000  Level FlightAware ADS-B
Thu 23:44:54 41.1270 -90.8450 238° Southwest 434 499 26,000  Level FlightAware ADS-B
Thu 23:45:49 41.0690 -90.9690 238° Southwest 437 503 26,000  Level FlightAware ADS-B
Thu 23:46:49 41.0050 -91.1040 238° Southwest 436 502 26,000  Level FlightAware ADS-B
Thu 23:47:29 40.9660 -91.1870 238° Southwest 435 501 26,000  Level FlightAware ADS-B
Thu 23:48:09 40.9200 -91.2830 238° Southwest 433 498 26,000  Level FlightAware ADS-B
Thu 23:48:54 40.8710 -91.3850 238° Southwest 430 495 26,000  Level FlightAware ADS-B
Thu 23:49:34 40.8300 -91.4710 238° Southwest 428 493 26,000  Level FlightAware ADS-B
Thu 23:50:14 40.7880 -91.5590 238° Southwest 426 490 26,000  Level FlightAware ADS-B
Thu 23:50:59 40.7400 -91.6580 237° Southwest 425 489 26,000  Level FlightAware ADS-B
Thu 23:51:39 40.6990 -91.7440 238° Southwest 424 488 26,000  Level FlightAware ADS-B
Thu 23:52:14 40.6630 -91.8160 237° Southwest 425 489 26,000  Level FlightAware ADS-B
Thu 23:53:04 40.6070 -91.9320 238° Southwest 427 491 26,000  Level FlightAware ADS-B
Thu 23:53:59 40.5490 -92.0520 238° Southwest 427 491 26,000  Level FlightAware ADS-B
Thu 23:54:44 40.5020 -92.1470 237° Southwest 426 490 26,000  Level FlightAware ADS-B
Thu 23:55:19 40.4660 -92.2200 237° Southwest 426 490 26,000  Level FlightAware ADS-B
Thu 23:56:04 40.4140 -92.3260 237° Southwest 426 490 26,000  Level FlightAware ADS-B
Thu 23:56:49 40.3680 -92.4180 237° Southwest 426 490 26,000  Level FlightAware ADS-B
Thu 23:57:29 40.3250 -92.5060 237° Southwest 427 491 26,000  Level FlightAware ADS-B
Thu 23:58:14 40.2740 -92.6080 237° Southwest 428 493 26,000  Level FlightAware ADS-B
Thu 23:58:54 40.2320 -92.6930 237° Southwest 427 491 26,000  Level FlightAware ADS-B
Thu 23:59:39 40.1840 -92.7900 237° Southwest 427 491 26,000  Level FlightAware ADS-B
Fri 00:00:19 40.1410 -92.8750 237° Southwest 426 490 26,000  Level FlightAware ADS-B
Fri 00:00:59 40.0970 -92.9620 237° Southwest 425 489 26,000  Level FlightAware ADS-B
Fri 00:01:44 40.0480 -93.0590 237° Southwest 424 488 26,000 -212 Level FlightAware ADS-B
Fri 00:02:24 40.0050 -93.1440 237° Southwest 417 480 25,700 -1,125 Descending FlightAware ADS-B
Fri 00:03:04 39.9640 -93.2250 237° Southwest 389 448 24,500 -2,118 Descending FlightAware ADS-B
Fri 00:03:49 39.9220 -93.3080 237° Southwest 375 432 22,700 -2,471 Descending FlightAware ADS-B
Fri 00:04:29 39.8840 -93.3830 237° Southwest 367 422 21,000 -2,625 Descending FlightAware ADS-B
Fri 00:05:09 39.8460 -93.4570 236° Southwest 363 418 19,200 -2,541 Descending FlightAware ADS-B
Fri 00:05:54 39.8040 -93.5390 236° Southwest 351 404 17,400 -2,400 Descending FlightAware ADS-B
Fri 00:06:34 39.7690 -93.6070 236° Southwest 343 395 15,800 -2,188 Descending FlightAware ADS-B
Fri 00:07:19 39.7300 -93.6820 236° Southwest 339 390 14,300 -1,835 Descending FlightAware ADS-B
Fri 00:07:59 39.6950 -93.7510 237° Southwest 342 394 13,200 -1,694 Descending FlightAware ADS-B
Fri 00:08:44 39.6550 -93.8270 236° Southwest 334 384 11,900 -1,624 Descending FlightAware ADS-B
Fri 00:09:24 39.6220 -93.8930 237° Southwest 317 365 10,900 -1,275 Descending FlightAware ADS-B
Fri 00:10:04 39.5910 -93.9540 237° Southwest 303 349 10,200 -943 Descending FlightAware ADS-B
Fri 00:10:34 39.5670 -94.0010 236° Southwest 303 349 9,800 -400 Descending FlightAware ADS-B
Fri 00:11:04 39.5450 -94.0440 236° Southwest 301 346 9,800  Level FlightAware ADS-B
Fri 00:11:29 39.5280 -94.0820 240° Southwest 300 345 9,800  Level FlightAware ADS-B
Fri 00:11:59 39.5150 -94.1340 252° West 302 348 9,800  Level FlightAware ADS-B
Fri 00:12:24 39.5080 -94.1790 259° West 300 345 9,800 -109 Level FlightAware ADS-B
Fri 00:12:54 39.5000 -94.2300 259° West 273 314 9,700 -400 Descending FlightAware ADS-B
Fri 00:13:24 39.4930 -94.2750 259° West 253 291 9,400 -1,091 Descending FlightAware ADS-B
Fri 00:13:49 39.4870 -94.3120 258° West 258 297 8,700 -1,527 Descending FlightAware ADS-B
Fri 00:14:19 39.4810 -94.3570 260° West 258 297 8,000 -1,200 Descending FlightAware ADS-B
Fri 00:14:44 39.4770 -94.3930 262° West 249 287 7,600 -1,200 Descending FlightAware ADS-B
Fri 00:15:14 39.4720 -94.4400 262° West 248 285 6,900 -1,467 Descending FlightAware ADS-B
Fri 00:15:29 39.4710 -94.4610 266° West 250 288 6,500 -1,350 Descending FlightAware ADS-B
Fri 00:15:54 39.4680 -94.4970 264° West 250 288 6,000 -1,440 Descending FlightAware ADS-B
Fri 00:16:19 39.4650 -94.5340 264° West 244 281 5,300 -960 Descending FlightAware ADS-B
Fri 00:16:44 39.4620 -94.5680 263° West 242 278 5,200 -1,238 Descending FlightAware ADS-B
Fri 00:17:22 39.4500 -94.6167 263° West 225 259 4,000 -1,224 Descending Kansas City TRACON
Fri 00:18:22 39.4167 -94.6667 229° Southwest 153 176 3,200 -700 Descending Kansas City TRACON
Fri 00:19:22 39.3833 -94.6833 201° Southwest 118 136 2,600 -650 Descending Kansas City TRACON
Fri 00:20:22 39.3500 -94.6833 180° South 117 135 1,900 -700 Descending Kansas City TRACON
Fri 00:21:22 39.3167 -94.7000 201° Southwest 131 151 1,200 -711 Descending Kansas City TRACON
Fri 00:21:38 39.3089 -94.7011 186° South 132 152 1,000 -750 Descending Kansas City Center
Fri 00:23:00 39.2976 -94.7139 203° Southwest  Level Estimated

Login

Don't have an account? Register now (free) for customized features, flight alerts, and more!